createdAt,value
2019-01-10T00:00:50.745Z,4.50
2019-01-10T00:03:18.705Z,14.40
2019-01-10T00:05:46.877Z,4.37
2019-01-10T00:08:15.029Z,8.77
2019-01-10T00:10:44.349Z,6.97
2019-01-10T00:13:12.266Z,14.37
2019-01-10T00:15:40.403Z,12.80
2019-01-10T00:18:08.273Z,6.13
2019-01-10T00:20:36.520Z,9.40
2019-01-10T00:23:04.461Z,6.27
2019-01-10T00:25:32.696Z,6.00
2019-01-10T00:28:00.858Z,9.97
2019-01-10T00:30:29.097Z,12.00
2019-01-10T00:32:56.921Z,7.17
2019-01-10T00:37:53.470Z,9.53
2019-01-10T00:40:22.934Z,5.40
2019-01-10T00:42:50.723Z,12.60
2019-01-10T00:45:18.397Z,7.43
2019-01-10T00:47:46.184Z,8.37
2019-01-10T00:50:16.121Z,9.07
2019-01-10T00:52:43.788Z,11.97
2019-01-10T00:55:11.470Z,15.73
2019-01-10T00:57:40.173Z,18.80
2019-01-10T01:00:11.395Z,13.37
2019-01-10T01:02:39.142Z,7.60
2019-01-10T01:05:08.726Z,17.93
2019-01-10T01:07:36.440Z,9.37
2019-01-10T01:10:05.686Z,11.27
2019-01-10T01:12:33.482Z,7.30
2019-01-10T01:15:01.284Z,10.77
2019-01-10T01:17:29.318Z,8.30
2019-01-10T01:19:57.033Z,9.70
2019-01-10T01:22:24.638Z,6.70
2019-01-10T01:24:53.138Z,10.27
2019-01-10T01:27:20.796Z,11.43
2019-01-10T01:29:49.300Z,12.53
2019-01-10T01:32:17.665Z,15.00
2019-01-10T01:34:45.455Z,9.23
2019-01-10T01:37:13.774Z,12.67
2019-01-10T01:39:42.064Z,12.60
2019-01-10T01:42:09.755Z,10.67
2019-01-10T01:44:37.442Z,21.93
2019-01-10T01:47:07.432Z,8.53
2019-01-10T01:49:35.076Z,10.90
2019-01-10T01:52:03.590Z,8.40
2019-01-10T01:54:31.231Z,9.03
2019-01-10T01:57:01.319Z,13.00
2019-01-10T01:59:29.033Z,11.10
2019-01-10T02:01:56.865Z,12.23
2019-01-10T02:04:28.711Z,7.63
2019-01-10T02:06:56.487Z,9.53
2019-01-10T02:09:24.261Z,6.77
2019-01-10T02:11:52.493Z,16.40
2019-01-10T02:14:20.263Z,7.00
2019-01-10T02:16:48.554Z,12.63
2019-01-10T02:19:16.708Z,12.13
2019-01-10T02:21:44.773Z,3.70
2019-01-10T02:24:15.015Z,8.67
2019-01-10T02:26:45.063Z,7.93
2019-01-10T02:29:12.814Z,19.20
2019-01-10T02:31:40.608Z,17.13
2019-01-10T02:34:14.042Z,12.10
2019-01-10T02:36:42.046Z,7.20
2019-01-10T02:39:09.845Z,17.27
2019-01-10T02:41:38.946Z,11.63
2019-01-10T02:44:07.143Z,16.83
2019-01-10T02:46:34.911Z,12.47
2019-01-10T02:49:03.758Z,8.17
2019-01-10T02:51:31.883Z,11.87
2019-01-10T02:53:59.769Z,15.63
2019-01-10T02:56:28.278Z,10.87
2019-01-10T02:58:56.403Z,17.83
2019-01-10T03:01:24.139Z,10.10
2019-01-10T03:03:53.088Z,16.93
2019-01-10T03:06:21.085Z,9.37
2019-01-10T03:08:49.845Z,9.67
2019-01-10T03:11:19.255Z,20.77
2019-01-10T03:13:47.331Z,12.63
2019-01-10T03:16:16.547Z,15.40
2019-01-10T03:18:44.284Z,8.27
2019-01-10T03:21:12.024Z,20.03
2019-01-10T03:23:39.802Z,9.00
2019-01-10T03:26:07.937Z,17.20
2019-01-10T03:28:36.468Z,12.77
2019-01-10T03:31:06.753Z,14.63
2019-01-10T03:33:34.862Z,15.13
2019-01-10T03:36:03.105Z,10.60
2019-01-10T03:38:32.248Z,10.27
2019-01-10T03:41:00.372Z,15.30
2019-01-10T03:43:28.382Z,15.20
2019-01-10T03:45:56.153Z,16.40
2019-01-10T03:48:25.095Z,10.97
2019-01-10T03:50:52.846Z,13.23
2019-01-10T03:53:22.659Z,13.90
2019-01-10T03:55:50.438Z,10.60
2019-01-10T03:58:18.484Z,10.83
2019-01-10T04:00:47.661Z,10.03
2019-01-10T04:03:15.838Z,10.47
2019-01-10T04:05:44.119Z,15.50
2019-01-10T04:08:12.208Z,16.67
2019-01-10T04:10:40.231Z,12.50
2019-01-10T04:13:07.976Z,10.27
2019-01-10T04:15:36.394Z,14.00
2019-01-10T04:18:04.336Z,11.10
2019-01-10T04:20:32.156Z,12.87
2019-01-10T04:23:00.090Z,16.53
2019-01-10T04:25:28.006Z,11.03
2019-01-10T04:27:56.131Z,20.97
2019-01-10T04:30:24.529Z,10.23
2019-01-10T04:32:52.637Z,18.93
2019-01-10T04:35:20.420Z,15.97
2019-01-10T04:37:48.539Z,14.77
2019-01-10T04:40:18.562Z,23.07
2019-01-10T04:42:46.436Z,15.03
2019-01-10T04:45:14.904Z,12.27
2019-01-10T04:47:42.877Z,16.80
2019-01-10T04:50:11.470Z,14.40
2019-01-10T04:52:39.985Z,15.70
2019-01-10T04:55:08.822Z,12.87
2019-01-10T04:57:36.984Z,16.60
2019-01-10T05:00:11.479Z,17.40
2019-01-10T05:02:39.359Z,18.10
2019-01-10T05:05:07.589Z,15.07
2019-01-10T05:07:35.372Z,8.73
2019-01-10T05:10:03.988Z,17.70
2019-01-10T05:12:31.879Z,12.57
2019-01-10T05:15:00.322Z,21.17
2019-01-10T05:17:30.199Z,15.30
2019-01-10T05:19:57.900Z,19.87
2019-01-10T05:22:26.162Z,18.00
2019-01-10T05:24:54.082Z,15.53
2019-01-10T05:27:21.854Z,15.57
2019-01-10T05:29:49.632Z,17.57
2019-01-10T05:32:17.764Z,19.57
2019-01-10T05:34:45.828Z,24.73
2019-01-10T05:37:13.674Z,18.53
2019-01-10T05:39:47.421Z,23.40
2019-01-10T05:42:13.516Z,18.17
2019-01-10T05:44:41.590Z,15.37
2019-01-10T05:47:10.015Z,17.27
2019-01-10T05:49:37.795Z,21.40
2019-01-10T05:52:05.597Z,14.07
2019-01-10T05:54:33.430Z,21.30
2019-01-10T05:57:01.505Z,15.37
2019-01-10T05:59:29.603Z,17.03
2019-01-10T06:01:57.396Z,19.30
2019-01-10T06:04:25.947Z,19.47
2019-01-10T06:06:53.848Z,26.20
2019-01-10T06:09:21.769Z,18.43
2019-01-10T06:11:52.205Z,20.70
2019-01-10T06:14:20.063Z,22.57
2019-01-10T06:16:48.311Z,19.03
2019-01-10T06:19:16.232Z,20.10
2019-01-10T06:21:44.050Z,22.10
2019-01-10T06:24:12.217Z,24.97
2019-01-10T06:26:40.004Z,22.53
2019-01-10T06:29:07.822Z,23.47
2019-01-10T06:31:35.615Z,26.70
2019-01-10T06:34:03.740Z,17.53
2019-01-10T06:36:32.413Z,19.73
2019-01-10T06:39:00.395Z,20.70
2019-01-10T06:41:28.158Z,15.50
2019-01-10T06:43:56.185Z,22.33
2019-01-10T06:46:23.967Z,18.40
2019-01-10T06:48:51.836Z,15.97
2019-01-10T06:51:19.839Z,16.73
2019-01-10T06:53:48.075Z,15.23
2019-01-10T06:56:15.820Z,14.43
2019-01-10T06:58:43.654Z,13.13
2019-01-10T07:01:11.457Z,17.43
2019-01-10T07:03:39.270Z,15.87
2019-01-10T07:06:07.143Z,10.77
2019-01-10T07:08:34.925Z,12.17
2019-01-10T07:11:02.996Z,11.33
2019-01-10T07:13:30.733Z,18.10
2019-01-10T07:15:58.807Z,13.68
2019-01-10T07:18:26.650Z,13.13
2019-01-10T07:20:54.888Z,14.83
2019-01-10T07:23:25.282Z,12.77
2019-01-10T07:25:55.235Z,13.30
2019-01-10T07:28:23.631Z,12.97
2019-01-10T07:30:53.704Z,15.33
2019-01-10T07:33:22.136Z,16.03
2019-01-10T07:35:53.360Z,18.83
2019-01-10T07:38:21.308Z,12.90
2019-01-10T07:40:49.263Z,9.13
2019-01-10T07:43:20.322Z,20.27
2019-01-10T07:45:48.403Z,14.13
2019-01-10T07:48:16.248Z,13.30
2019-01-10T07:50:44.023Z,11.40
2019-01-10T07:53:11.799Z,13.67
2019-01-10T07:55:40.515Z,17.90
2019-01-10T07:58:09.420Z,15.77
2019-01-10T08:00:37.166Z,23.13
2019-01-10T08:03:05.051Z,14.30
2019-01-10T08:05:33.288Z,13.60
2019-01-10T08:08:01.144Z,16.00
2019-01-10T08:10:29.221Z,24.73
2019-01-10T08:12:58.612Z,21.93
2019-01-10T08:15:26.230Z,20.70
2019-01-10T08:17:54.175Z,25.27
2019-01-10T08:20:22.281Z,17.40
2019-01-10T08:22:50.452Z,14.57
2019-01-10T08:25:18.246Z,8.47
2019-01-10T08:27:47.655Z,7.57
2019-01-10T08:30:20.391Z,14.17
2019-01-10T08:32:48.511Z,9.30
2019-01-10T08:35:19.039Z,12.47
2019-01-10T08:37:47.112Z,14.03
2019-01-10T08:40:15.399Z,13.20
2019-01-10T08:42:43.159Z,15.33
2019-01-10T08:45:21.371Z,14.77
2019-01-10T08:47:43.059Z,14.10
2019-01-10T08:50:14.657Z,14.33
2019-01-10T08:52:42.481Z,13.67
2019-01-10T08:55:10.344Z,13.70
2019-01-10T08:57:38.954Z,11.77
2019-01-10T09:00:10.377Z,12.97
2019-01-10T09:02:38.669Z,12.63
2019-01-10T09:05:07.091Z,18.50
2019-01-10T09:07:35.051Z,9.17
2019-01-10T09:10:03.994Z,21.27
2019-01-10T09:12:32.167Z,28.03
2019-01-10T09:14:59.877Z,18.47
2019-01-10T09:17:27.689Z,12.70
2019-01-10T09:19:55.471Z,13.60
2019-01-10T09:22:23.496Z,10.83
2019-01-10T09:24:51.258Z,12.70
2019-01-10T09:27:19.421Z,12.53
2019-01-10T09:29:47.619Z,12.27
2019-01-10T09:32:15.414Z,7.77
2019-01-10T09:34:44.599Z,9.67
2019-01-10T09:37:12.686Z,9.07
2019-01-10T09:39:40.608Z,9.53
2019-01-10T09:42:08.455Z,6.73
2019-01-10T09:44:36.585Z,9.37
2019-01-10T09:47:04.608Z,14.03
2019-01-10T09:49:32.420Z,9.20
2019-01-10T09:52:00.365Z,9.47
2019-01-10T09:54:28.399Z,5.83
2019-01-10T09:56:56.476Z,13.33
2019-01-10T09:59:24.306Z,9.57
2019-01-10T10:01:52.753Z,14.67
2019-01-10T10:04:20.839Z,15.60
2019-01-10T10:06:48.904Z,16.70
2019-01-10T10:09:18.251Z,14.03
2019-01-10T10:11:46.094Z,12.23
2019-01-10T10:14:14.114Z,15.80
2019-01-10T10:16:42.095Z,18.73
2019-01-10T10:19:11.344Z,12.53
2019-01-10T10:21:39.467Z,19.17
2019-01-10T10:24:07.420Z,11.20
2019-01-10T10:26:35.943Z,14.23
2019-01-10T10:29:05.107Z,15.03
2019-01-10T10:31:33.189Z,12.23
2019-01-10T10:34:01.078Z,11.23
2019-01-10T10:36:30.039Z,10.47
2019-01-10T10:38:58.175Z,11.97
2019-01-10T10:41:25.964Z,10.50
2019-01-10T10:43:54.050Z,16.43
2019-01-10T10:46:22.603Z,14.17
2019-01-10T10:48:50.386Z,10.93
2019-01-10T10:51:18.673Z,12.00
2019-01-10T10:53:47.359Z,10.83
2019-01-10T10:56:15.272Z,14.40
2019-01-10T10:58:43.471Z,11.00
2019-01-10T11:01:12.862Z,8.87
2019-01-10T11:03:41.095Z,11.80
2019-01-10T11:06:09.259Z,8.47
2019-01-10T11:08:37.518Z,10.70
2019-01-10T11:11:05.504Z,10.70
2019-01-10T11:13:33.297Z,10.20
2019-01-10T11:16:10.238Z,8.30
2019-01-10T11:18:30.931Z,8.37
2019-01-10T11:20:59.872Z,10.47
2019-01-10T11:23:28.280Z,9.07
2019-01-10T11:25:56.349Z,11.60
2019-01-10T11:28:24.097Z,15.53
2019-01-10T11:30:51.907Z,10.53
2019-01-10T11:33:19.807Z,9.43
2019-01-10T11:35:47.904Z,6.40
2019-01-10T11:38:16.245Z,10.30
2019-01-10T11:40:44.391Z,11.43
2019-01-10T11:43:12.433Z,18.10
2019-01-10T11:45:40.228Z,11.03
2019-01-10T11:48:08.866Z,9.87
2019-01-10T11:50:37.090Z,9.77
2019-01-10T11:53:05.564Z,6.80
2019-01-10T11:55:33.511Z,11.20
2019-01-10T11:58:01.392Z,5.77
2019-01-10T12:00:30.976Z,6.93
2019-01-10T12:03:00.800Z,9.87
2019-01-10T12:05:30.818Z,8.17
2019-01-10T12:07:58.582Z,7.63
2019-01-10T12:10:26.621Z,10.17
2019-01-10T12:12:54.818Z,8.97
2019-01-10T12:15:22.927Z,7.70
2019-01-10T12:17:50.848Z,4.90
2019-01-10T12:20:19.008Z,7.60
2019-01-10T12:22:48.195Z,9.33
2019-01-10T12:25:16.267Z,12.67
2019-01-10T12:27:45.211Z,12.27
2019-01-10T12:30:16.485Z,8.87
2019-01-10T12:32:47.977Z,5.67
2019-01-10T12:35:15.732Z,9.43
2019-01-10T12:37:43.667Z,7.00
2019-01-10T12:40:12.347Z,8.70
2019-01-10T12:42:40.178Z,8.20
2019-01-10T12:45:10.690Z,9.00
2019-01-10T12:47:38.989Z,8.83
2019-01-10T12:50:11.867Z,6.30
2019-01-10T12:52:39.976Z,7.57
2019-01-10T12:55:07.786Z,11.03
2019-01-10T12:57:35.876Z,8.67
2019-01-10T13:00:05.227Z,5.23
2019-01-10T13:02:32.946Z,8.50
2019-01-10T13:05:01.103Z,11.17
2019-01-10T13:07:29.035Z,12.10
2019-01-10T13:09:56.834Z,6.17
2019-01-10T13:12:24.572Z,15.70
2019-01-10T13:14:52.885Z,6.33
2019-01-10T13:17:21.013Z,11.10
2019-01-10T13:19:48.971Z,6.40
2019-01-10T13:22:16.597Z,11.13
2019-01-10T13:24:45.048Z,15.57
2019-01-10T13:27:12.879Z,31.27
2019-01-10T13:29:40.683Z,10.93
2019-01-10T13:32:08.531Z,4.97
2019-01-10T13:34:36.622Z,7.90
2019-01-10T13:37:04.899Z,9.93
2019-01-10T13:39:33.270Z,10.23
2019-01-10T13:42:01.603Z,13.37
2019-01-10T13:44:29.602Z,11.03
2019-01-10T13:46:57.548Z,7.20
2019-01-10T13:49:25.299Z,14.20
2019-01-10T13:51:54.048Z,10.17
2019-01-10T13:54:22.153Z,10.97
2019-01-10T13:56:50.363Z,5.87
2019-01-10T13:59:18.296Z,11.70
2019-01-10T14:01:47.571Z,8.90
2019-01-10T14:04:15.318Z,13.23
2019-01-10T14:06:43.556Z,7.37
2019-01-10T14:09:12.439Z,11.97
2019-01-10T14:11:40.226Z,6.80
2019-01-10T14:14:08.140Z,13.90
2019-01-10T14:16:46.317Z,7.03
2019-01-10T14:19:14.081Z,8.17
2019-01-10T14:21:47.277Z,9.37
2019-01-10T14:24:15.741Z,12.30
2019-01-10T14:26:45.746Z,11.63
2019-01-10T14:29:13.651Z,13.30
2019-01-10T14:31:41.987Z,12.00
2019-01-10T14:34:14.194Z,15.53
2019-01-10T14:36:40.625Z,16.43
2019-01-10T14:39:20.944Z,11.00
2019-01-10T14:41:48.664Z,22.27
2019-01-10T14:44:16.424Z,29.70
2019-01-10T14:46:57.663Z,14.90
2019-01-10T14:49:25.992Z,13.87
2019-01-10T14:51:53.771Z,8.23
2019-01-10T14:54:21.601Z,11.27
2019-01-10T14:56:49.736Z,12.23
2019-01-10T14:59:17.803Z,12.67
2019-01-10T15:01:46.117Z,10.70
2019-01-10T15:04:14.118Z,13.77
2019-01-10T15:06:41.887Z,18.67
2019-01-10T15:09:10.822Z,12.93
2019-01-10T15:11:38.966Z,13.83
2019-01-10T15:14:07.248Z,16.63
2019-01-10T15:16:35.195Z,13.90
2019-01-10T15:19:03.646Z,18.17
2019-01-10T15:21:31.423Z,23.97
2019-01-10T15:23:59.223Z,16.90
2019-01-10T15:26:27.383Z,22.47
2019-01-10T15:28:55.142Z,18.73
2019-01-10T15:31:25.081Z,18.80
2019-01-10T15:33:53.119Z,9.43
2019-01-10T15:36:21.191Z,13.20
2019-01-10T15:38:49.341Z,17.10
2019-01-10T15:41:18.929Z,15.60
2019-01-10T15:43:46.646Z,14.33
2019-01-10T15:46:15.053Z,17.50
2019-01-10T15:48:43.110Z,14.57
2019-01-10T15:51:11.110Z,14.93
2019-01-10T15:53:44.546Z,17.30
2019-01-10T15:56:12.378Z,14.60
2019-01-10T15:58:40.560Z,13.93
2019-01-10T16:01:08.431Z,20.80
2019-01-10T16:03:38.496Z,21.97
2019-01-10T16:06:07.103Z,17.33
2019-01-10T16:08:35.319Z,21.37
2019-01-10T16:11:04.448Z,22.33
2019-01-10T16:13:32.556Z,27.90
2019-01-10T16:16:02.423Z,34.07
2019-01-10T16:18:30.499Z,24.90
2019-01-10T16:20:58.545Z,29.07
2019-01-10T16:23:30.983Z,25.48
2019-01-10T16:25:58.763Z,22.67
2019-01-10T16:28:28.730Z,22.87
2019-01-10T16:30:56.908Z,19.77
2019-01-10T16:33:24.827Z,19.20
2019-01-10T16:35:59.726Z,24.20
2019-01-10T16:38:27.774Z,14.77
2019-01-10T16:40:55.542Z,21.77
2019-01-10T16:43:41.814Z,20.37
2019-01-10T16:46:10.666Z,22.13
2019-01-10T16:48:38.471Z,15.33
2019-01-10T16:51:07.532Z,15.07
2019-01-10T16:53:35.353Z,27.20
2019-01-10T16:56:03.549Z,18.87
2019-01-10T16:58:32.016Z,11.57
2019-01-10T17:01:00.183Z,11.70
2019-01-10T17:03:28.429Z,14.50
2019-01-10T17:06:10.711Z,16.73
2019-01-10T17:08:38.559Z,15.73
2019-01-10T17:11:06.447Z,13.80
2019-01-10T17:13:57.510Z,12.60
2019-01-10T17:16:25.397Z,10.73
2019-01-10T17:18:53.168Z,19.40
2019-01-10T17:21:51.071Z,15.20
2019-01-10T17:24:19.244Z,18.37
2019-01-10T17:26:49.162Z,17.53
2019-01-10T17:29:17.199Z,19.10
2019-01-10T17:31:45.238Z,20.60
2019-01-10T17:34:29.585Z,22.77
2019-01-10T17:36:57.345Z,25.97
2019-01-10T17:39:25.798Z,32.73
2019-01-10T17:42:02.222Z,20.93
2019-01-10T17:44:30.035Z,30.03
2019-01-10T17:47:06.901Z,30.27
2019-01-10T17:49:34.678Z,37.67
2019-01-10T17:52:02.617Z,54.67
2019-01-10T17:54:32.553Z,32.07
2019-01-10T17:57:00.427Z,20.17
2019-01-10T17:59:28.255Z,23.83
2019-01-10T18:02:21.944Z,19.53
2019-01-10T18:04:52.254Z,19.13
2019-01-10T18:07:20.114Z,22.33
2019-01-10T18:09:48.101Z,18.80
2019-01-10T18:12:18.084Z,21.23
2019-01-10T18:14:45.989Z,26.87
2019-01-10T18:17:14.284Z,28.90
2019-01-10T18:19:59.705Z,27.60
2019-01-10T18:22:27.510Z,19.57
2019-01-10T18:24:55.573Z,22.43
2019-01-10T18:27:37.568Z,26.07
2019-01-10T18:30:08.404Z,18.83
2019-01-10T18:32:36.307Z,26.67
2019-01-10T18:35:09.652Z,26.40
2019-01-10T18:37:37.779Z,21.60
2019-01-10T18:40:06.219Z,24.17
2019-01-10T18:42:37.802Z,16.93
2019-01-10T18:45:07.924Z,20.70
2019-01-10T18:47:35.778Z,24.90
2019-01-10T18:50:10.785Z,24.37
2019-01-10T18:52:38.638Z,21.00
2019-01-10T18:55:06.577Z,25.93
2019-01-10T18:57:52.531Z,26.87
2019-01-10T19:00:25.330Z,29.83
2019-01-10T19:02:53.354Z,26.93
2019-01-10T19:05:59.520Z,29.93
2019-01-10T19:08:27.268Z,30.97
2019-01-10T19:10:55.158Z,28.90
2019-01-10T19:13:26.712Z,30.37
2019-01-10T19:15:54.479Z,27.17
2019-01-10T19:18:23.641Z,27.33
2019-01-10T19:20:51.721Z,37.80
2019-01-10T19:23:21.690Z,31.93
2019-01-10T19:25:49.472Z,29.57
2019-01-10T19:28:17.794Z,37.33
2019-01-10T19:30:45.947Z,35.77
2019-01-10T19:33:13.919Z,39.43
2019-01-10T19:35:41.656Z,43.52
2019-01-10T19:38:15.406Z,34.03
2019-01-10T19:40:43.154Z,45.30
2019-01-10T19:43:12.408Z,41.73
2019-01-10T19:45:40.599Z,36.17
2019-01-10T19:48:09.868Z,34.43
2019-01-10T19:50:40.204Z,39.70
2019-01-10T19:53:07.986Z,35.50
2019-01-10T19:55:43.399Z,31.67
2019-01-10T19:58:12.024Z,37.93
2019-01-10T20:00:55.697Z,45.03
2019-01-10T20:03:24.747Z,33.57
2019-01-10T20:05:52.698Z,43.07
2019-01-10T20:08:21.015Z,39.90
2019-01-10T20:10:51.450Z,27.30
2019-01-10T20:13:19.612Z,35.60
2019-01-10T20:15:47.368Z,45.03
2019-01-10T20:18:16.316Z,40.10
2019-01-10T20:20:44.391Z,38.13
2019-01-10T20:23:27.979Z,33.10
2019-01-10T20:25:57.900Z,34.93
2019-01-10T20:28:25.652Z,30.90
2019-01-10T20:30:53.460Z,29.23
2019-01-10T20:33:21.256Z,39.33
2019-01-10T20:35:49.435Z,35.03
2019-01-10T20:38:17.264Z,33.20
2019-01-10T20:40:46.745Z,39.30
2019-01-10T20:43:16.744Z,40.50
2019-01-10T20:45:44.625Z,38.60
2019-01-10T20:48:13.075Z,42.83
2019-01-10T20:50:40.810Z,40.10
2019-01-10T20:53:09.145Z,51.53
2019-01-10T20:55:37.186Z,56.07
2019-01-10T20:58:05.287Z,55.70
2019-01-10T21:00:33.329Z,45.33
2019-01-10T21:03:01.167Z,56.07
2019-01-10T21:05:29.694Z,47.77
2019-01-10T21:07:57.492Z,48.63
2019-01-10T21:10:25.574Z,53.73
2019-01-10T21:12:53.619Z,52.30
2019-01-10T21:15:23.883Z,56.70
2019-01-10T21:17:52.300Z,54.47
2019-01-10T21:20:20.074Z,53.60
2019-01-10T21:22:48.736Z,56.63
2019-01-10T21:25:16.912Z,59.03
2019-01-10T21:27:44.945Z,50.57
2019-01-10T21:30:15.528Z,70.20
2019-01-10T21:32:43.467Z,66.13
2019-01-10T21:35:11.559Z,64.63
2019-01-10T21:37:39.408Z,63.63
2019-01-10T21:40:09.772Z,57.43
2019-01-10T21:42:37.552Z,66.57
2019-01-10T21:45:09.510Z,65.73
2019-01-10T21:47:38.015Z,73.17
2019-01-10T21:50:07.566Z,73.27
2019-01-10T21:52:35.774Z,77.17
2019-01-10T21:55:05.859Z,74.13
2019-01-10T21:57:34.233Z,79.23
2019-01-10T22:00:05.553Z,79.43
2019-01-10T22:02:33.685Z,77.83
2019-01-10T22:05:01.436Z,82.83
2019-01-10T22:07:29.250Z,93.23
2019-01-10T22:09:57.032Z,89.27
2019-01-10T22:12:25.161Z,81.53
2019-01-10T22:14:55.074Z,86.90
2019-01-10T22:17:23.196Z,81.20
2019-01-10T22:19:50.928Z,85.77
2019-01-10T22:22:18.851Z,85.67
2019-01-10T22:24:46.985Z,86.23
2019-01-10T22:27:14.726Z,86.30
2019-01-10T22:29:42.864Z,92.17
2019-01-10T22:32:11.105Z,89.00
2019-01-10T22:34:38.839Z,85.50
2019-01-10T22:37:06.938Z,90.63
2019-01-10T22:39:34.601Z,88.70
2019-01-10T22:42:02.674Z,85.70
2019-01-10T22:44:30.520Z,88.53
2019-01-10T22:46:58.322Z,96.60
2019-01-10T22:49:26.034Z,86.07
2019-01-10T22:51:54.282Z,92.50
2019-01-10T22:54:22.443Z,94.43
2019-01-10T22:56:50.346Z,105.50
2019-01-10T22:59:18.481Z,91.83
2019-01-10T23:01:55.128Z,93.83
2019-01-10T23:04:37.141Z,97.70
2019-01-10T23:07:15.122Z,98.60
2019-01-10T23:09:42.879Z,92.93
2019-01-10T23:12:10.651Z,95.73
2019-01-10T23:14:39.363Z,106.37
2019-01-10T23:17:07.594Z,103.47
2019-01-10T23:19:44.248Z,102.27
2019-01-10T23:22:13.660Z,101.73
2019-01-10T23:24:41.440Z,108.83
2019-01-10T23:27:09.288Z,118.77
2019-01-10T23:29:37.658Z,118.30
2019-01-10T23:32:14.210Z,117.03
2019-01-10T23:34:48.870Z,117.60
2019-01-10T23:37:21.539Z,117.53
2019-01-10T23:39:49.315Z,132.50
2019-01-10T23:42:17.408Z,130.73
2019-01-10T23:44:45.170Z,130.73
2019-01-10T23:47:12.967Z,141.90
2019-01-10T23:49:40.761Z,133.93
2019-01-10T23:52:08.499Z,145.13
2019-01-10T23:54:36.366Z,134.70
2019-01-10T23:57:04.156Z,131.50
2019-01-10T23:59:31.930Z,128.13
